sensor_id;sensor_type;location;lat;lon;timestamp;pressure;altitude;pressure_sealevel;temperature;humidity
71145;BME280;58812;47.698;17.726;2023-05-21T00:00:57;100325.75;;;14.13;98.81
71145;BME280;58812;47.698;17.726;2023-05-21T00:03:22;100322.37;;;14.19;98.19
71145;BME280;58812;47.698;17.726;2023-05-21T00:05:51;100316.13;;;14.27;97.66
71145;BME280;58812;47.698;17.726;2023-05-21T00:08:16;100320.00;;;14.32;97.23
71145;BME280;58812;47.698;17.726;2023-05-21T00:10:41;100325.56;;;14.39;96.87
71145;BME280;58812;47.698;17.726;2023-05-21T00:13:07;100324.22;;;14.43;96.32
71145;BME280;58812;47.698;17.726;2023-05-21T00:15:33;100324.06;;;14.36;97.17
71145;BME280;58812;47.698;17.726;2023-05-21T00:17:59;100326.22;;;14.33;97.11
71145;BME280;58812;47.698;17.726;2023-05-21T00:20:24;100326.09;;;14.18;99.62
71145;BME280;58812;47.698;17.726;2023-05-21T00:22:51;100331.13;;;14.13;98.00
71145;BME280;58812;47.698;17.726;2023-05-21T00:25:16;100327.41;;;13.98;99.57
71145;BME280;58812;47.698;17.726;2023-05-21T00:27:42;100318.81;;;13.86;100.00
71145;BME280;58812;47.698;17.726;2023-05-21T00:30:07;100329.56;;;13.86;100.00
71145;BME280;58812;47.698;17.726;2023-05-21T00:32:33;100333.28;;;13.85;100.00
71145;BME280;58812;47.698;17.726;2023-05-21T00:34:58;100334.28;;;13.76;100.00
71145;BME280;58812;47.698;17.726;2023-05-21T00:37:24;100321.50;;;13.78;100.00
71145;BME280;58812;47.698;17.726;2023-05-21T00:39:49;100341.31;;;13.60;100.00
71145;BME280;58812;47.698;17.726;2023-05-21T00:42:15;100337.66;;;13.70;100.00
71145;BME280;58812;47.698;17.726;2023-05-21T00:44:45;100327.19;;;13.75;100.00
71145;BME280;58812;47.698;17.726;2023-05-21T00:47:12;100330.25;;;13.80;100.00
71145;BME280;58812;47.698;17.726;2023-05-21T00:49:38;100333.94;;;13.79;100.00
71145;BME280;58812;47.698;17.726;2023-05-21T00:52:04;100321.16;;;13.81;100.00
71145;BME280;58812;47.698;17.726;2023-05-21T00:54:29;100324.19;;;13.86;100.00
71145;BME280;58812;47.698;17.726;2023-05-21T00:56:55;100327.22;;;13.91;100.00
71145;BME280;58812;47.698;17.726;2023-05-21T00:59:21;100325.56;;;13.82;100.00
71145;BME280;58812;47.698;17.726;2023-05-21T01:01:47;100337.66;;;13.78;100.00
71145;BME280;58812;47.698;17.726;2023-05-21T01:04:21;100339.47;;;13.69;100.00
71145;BME280;58812;47.698;17.726;2023-05-21T01:06:47;100336.31;;;13.82;100.00
71145;BME280;58812;47.698;17.726;2023-05-21T01:09:12;100325.03;;;13.86;100.00
71145;BME280;58812;47.698;17.726;2023-05-21T01:11:47;100328.56;;;13.87;100.00
71145;BME280;58812;47.698;17.726;2023-05-21T01:14:15;100328.25;;;13.90;100.00
71145;BME280;58812;47.698;17.726;2023-05-21T01:16:43;100323.69;;;13.90;100.00
71145;BME280;58812;47.698;17.726;2023-05-21T01:19:17;100330.59;;;13.93;100.00
71145;BME280;58812;47.698;17.726;2023-05-21T01:21:45;100324.22;;;13.94;100.00
71145;BME280;58812;47.698;17.726;2023-05-21T01:24:12;100326.56;;;13.97;100.00
71145;BME280;58812;47.698;17.726;2023-05-21T01:26:38;100324.87;;;13.96;100.00
71145;BME280;58812;47.698;17.726;2023-05-21T01:29:10;100324.22;;;13.94;100.00
71145;BME280;58812;47.698;17.726;2023-05-21T01:34:08;100318.16;;;13.92;100.00
71145;BME280;58812;47.698;17.726;2023-05-21T01:36:40;100311.44;;;13.88;100.00
71145;BME280;58812;47.698;17.726;2023-05-21T01:39:22;100321.19;;;13.89;100.00
71145;BME280;58812;47.698;17.726;2023-05-21T01:41:51;100312.75;;;13.92;100.00
71145;BME280;58812;47.698;17.726;2023-05-21T01:44:17;100309.06;;;13.93;100.00
71145;BME280;58812;47.698;17.726;2023-05-21T01:46:43;100319.50;;;13.96;100.00
71145;BME280;58812;47.698;17.726;2023-05-21T01:49:09;100317.84;;;13.95;100.00
71145;BME280;58812;47.698;17.726;2023-05-21T01:51:35;100312.44;;;13.95;100.00
71145;BME280;58812;47.698;17.726;2023-05-21T01:54:01;100315.13;;;13.95;100.00
71145;BME280;58812;47.698;17.726;2023-05-21T01:56:27;100313.47;;;13.94;100.00
71145;BME280;58812;47.698;17.726;2023-05-21T01:58:54;100317.84;;;13.95;100.00
71145;BME280;58812;47.698;17.726;2023-05-21T02:01:21;100311.59;;;13.95;100.00
71145;BME280;58812;47.698;17.726;2023-05-21T02:03:46;100314.13;;;13.96;100.00
71145;BME280;58812;47.698;17.726;2023-05-21T02:06:12;100317.47;;;13.98;100.00
71145;BME280;58812;47.698;17.726;2023-05-21T02:08:37;100310.91;;;13.93;100.00
71145;BME280;58812;47.698;17.726;2023-05-21T02:11:03;100309.06;;;13.93;100.00
71145;BME280;58812;47.698;17.726;2023-05-21T02:13:28;100316.16;;;13.94;100.00
71145;BME280;58812;47.698;17.726;2023-05-21T02:15:54;100306.38;;;13.93;100.00
71145;BME280;58812;47.698;17.726;2023-05-21T02:18:20;100302.53;;;13.96;100.00
71145;BME280;58812;47.698;17.726;2023-05-21T02:20:46;100307.41;;;14.00;100.00
71145;BME280;58812;47.698;17.726;2023-05-21T02:23:11;100303.34;;;14.04;100.00
71145;BME280;58812;47.698;17.726;2023-05-21T02:25:37;100307.06;;;14.11;100.00
71145;BME280;58812;47.698;17.726;2023-05-21T02:28:02;100305.03;;;14.13;100.00
71145;BME280;58812;47.698;17.726;2023-05-21T02:30:28;100300.31;;;14.15;100.00
71145;BME280;58812;47.698;17.726;2023-05-21T02:32:53;100286.34;;;14.20;100.00
71145;BME280;58812;47.698;17.726;2023-05-21T02:35:19;100284.19;;;14.24;100.00
71145;BME280;58812;47.698;17.726;2023-05-21T02:37:44;100279.47;;;14.26;100.00
71145;BME280;58812;47.698;17.726;2023-05-21T02:40:10;100279.78;;;14.31;100.00
71145;BME280;58812;47.698;17.726;2023-05-21T02:42:37;100280.97;;;14.36;100.00
71145;BME280;58812;47.698;17.726;2023-05-21T02:45:06;100281.28;;;14.41;100.00
71145;BME280;58812;47.698;17.726;2023-05-21T02:47:31;100286.16;;;14.46;100.00
71145;BME280;58812;47.698;17.726;2023-05-21T02:49:58;100275.06;;;14.49;100.00
71145;BME280;58812;47.698;17.726;2023-05-21T02:52:24;100280.47;;;14.49;100.00
71145;BME280;58812;47.698;17.726;2023-05-21T02:54:50;100286.88;;;14.48;100.00
71145;BME280;58812;47.698;17.726;2023-05-21T02:57:16;100286.31;;;14.44;99.96
71145;BME280;58812;47.698;17.726;2023-05-21T02:59:42;100290.53;;;14.39;100.00
71145;BME280;58812;47.698;17.726;2023-05-21T03:02:08;100287.84;;;14.39;100.00
71145;BME280;58812;47.698;17.726;2023-05-21T03:04:33;100281.16;;;14.35;100.00
71145;BME280;58812;47.698;17.726;2023-05-21T03:07:03;100280.28;;;14.34;100.00
71145;BME280;58812;47.698;17.726;2023-05-21T03:09:28;100282.81;;;14.36;100.00
71145;BME280;58812;47.698;17.726;2023-05-21T03:11:54;100291.91;;;14.35;100.00
71145;BME280;58812;47.698;17.726;2023-05-21T03:14:19;100282.81;;;14.36;100.00
71145;BME280;58812;47.698;17.726;2023-05-21T03:16:45;100275.75;;;14.35;100.00
71145;BME280;58812;47.698;17.726;2023-05-21T03:19:12;100282.81;;;14.36;100.00
71145;BME280;58812;47.698;17.726;2023-05-21T03:21:37;100280.28;;;14.34;100.00
71145;BME280;58812;47.698;17.726;2023-05-21T03:24:04;100281.16;;;14.35;100.00
71145;BME280;58812;47.698;17.726;2023-05-21T03:26:30;100278.44;;;14.35;100.00
71145;BME280;58812;47.698;17.726;2023-05-21T03:28:55;100284.69;;;14.35;100.00
71145;BME280;58812;47.698;17.726;2023-05-21T03:31:22;100288.03;;;14.37;100.00
71145;BME280;58812;47.698;17.726;2023-05-21T03:33:47;100289.88;;;14.37;100.00
71145;BME280;58812;47.698;17.726;2023-05-21T03:36:13;100298.81;;;14.37;100.00
71145;BME280;58812;47.698;17.726;2023-05-21T03:38:38;100286.16;;;14.38;100.00
71145;BME280;58812;47.698;17.726;2023-05-21T03:41:04;100286.16;;;14.38;100.00
71145;BME280;58812;47.698;17.726;2023-05-21T03:43:30;100288.69;;;14.39;100.00
71145;BME280;58812;47.698;17.726;2023-05-21T03:45:55;100285.84;;;14.41;100.00
71145;BME280;58812;47.698;17.726;2023-05-21T03:48:21;100288.34;;;14.42;100.00
71145;BME280;58812;47.698;17.726;2023-05-21T03:50:46;100285.50;;;14.44;100.00
71145;BME280;58812;47.698;17.726;2023-05-21T03:53:12;100290.59;;;14.47;100.00
71145;BME280;58812;47.698;17.726;2023-05-21T03:55:38;100279.28;;;14.52;100.00
71145;BME280;58812;47.698;17.726;2023-05-21T03:58:03;100288.37;;;14.59;99.51
71145;BME280;58812;47.698;17.726;2023-05-21T04:00:29;100288.84;;;14.62;99.32
71145;BME280;58812;47.698;17.726;2023-05-21T04:02:54;100294.22;;;14.71;99.03
71145;BME280;58812;47.698;17.726;2023-05-21T04:05:19;100296.25;;;14.77;98.60
71145;BME280;58812;47.698;17.726;2023-05-21T04:07:45;100297.87;;;14.86;98.15
71145;BME280;58812;47.698;17.726;2023-05-21T04:10:11;100300.72;;;14.92;97.67
71145;BME280;58812;47.698;17.726;2023-05-21T04:12:36;100298.19;;;14.91;97.52
71145;BME280;58812;47.698;17.726;2023-05-21T04:15:02;100298.47;;;15.04;97.35
71145;BME280;58812;47.698;17.726;2023-05-21T04:17:27;100301.06;;;15.29;96.33
71145;BME280;58812;47.698;17.726;2023-05-21T04:19:53;100301.00;;;15.45;94.60
71145;BME280;58812;47.698;17.726;2023-05-21T04:22:18;100300.88;;;15.69;93.59
71145;BME280;58812;47.698;17.726;2023-05-21T04:24:44;100296.97;;;15.95;92.27
71145;BME280;58812;47.698;17.726;2023-05-21T04:27:10;100311.37;;;16.10;91.40
71145;BME280;58812;47.698;17.726;2023-05-21T04:29:38;100299.94;;;16.23;90.19
71145;BME280;58812;47.698;17.726;2023-05-21T04:32:07;100304.38;;;16.39;89.65
71145;BME280;58812;47.698;17.726;2023-05-21T04:34:32;100310.72;;;16.46;88.92
71145;BME280;58812;47.698;17.726;2023-05-21T04:36:58;100300.69;;;16.69;87.89
71145;BME280;58812;47.698;17.726;2023-05-21T04:39:24;100304.91;;;16.87;87.10
71145;BME280;58812;47.698;17.726;2023-05-21T04:41:49;100311.81;;;16.89;86.05
71145;BME280;58812;47.698;17.726;2023-05-21T04:44:18;100317.22;;;17.04;85.28
71145;BME280;58812;47.698;17.726;2023-05-21T04:46:44;100319.66;;;17.14;85.10
71145;BME280;58812;47.698;17.726;2023-05-21T04:49:10;100321.03;;;17.24;84.46
71145;BME280;58812;47.698;17.726;2023-05-21T04:51:35;100322.41;;;17.35;83.84
71145;BME280;58812;47.698;17.726;2023-05-21T04:54:02;100326.78;;;17.51;83.32
71145;BME280;58812;47.698;17.726;2023-05-21T04:56:28;100326.25;;;17.77;82.55
71145;BME280;58812;47.698;17.726;2023-05-21T04:58:53;100326.53;;;17.82;81.83
71145;BME280;58812;47.698;17.726;2023-05-21T05:01:19;100325.00;;;18.15;81.61
71145;BME280;58812;47.698;17.726;2023-05-21T05:03:49;100329.16;;;18.39;80.14
71145;BME280;58812;47.698;17.726;2023-05-21T05:06:15;100327.50;;;18.38;79.58
71145;BME280;58812;47.698;17.726;2023-05-21T05:08:41;100326.13;;;18.56;78.05
71145;BME280;58812;47.698;17.726;2023-05-21T05:11:06;100322.41;;;18.57;76.41
71145;BME280;58812;47.698;17.726;2023-05-21T05:13:33;100319.69;;;18.85;76.65
71145;BME280;58812;47.698;17.726;2023-05-21T05:15:58;100334.03;;;19.07;75.22
71145;BME280;58812;47.698;17.726;2023-05-21T05:18:24;100336.72;;;19.00;75.11
71145;BME280;58812;47.698;17.726;2023-05-21T05:20:50;100335.03;;;18.99;75.85
71145;BME280;58812;47.698;17.726;2023-05-21T05:23:15;100332.63;;;19.17;74.59
71145;BME280;58812;47.698;17.726;2023-05-21T05:25:41;100329.28;;;19.57;73.45
71145;BME280;58812;47.698;17.726;2023-05-21T05:28:06;100337.25;;;19.65;71.62
71145;BME280;58812;47.698;17.726;2023-05-21T05:30:32;100331.00;;;19.64;71.95
71145;BME280;58812;47.698;17.726;2023-05-21T05:32:57;100333.97;;;19.89;71.55
71145;BME280;58812;47.698;17.726;2023-05-21T05:35:23;100325.13;;;19.67;70.63
71145;BME280;58812;47.698;17.726;2023-05-21T05:37:48;100333.53;;;19.79;71.04
71145;BME280;58812;47.698;17.726;2023-05-21T05:40:13;100342.50;;;19.73;71.98
71145;BME280;58812;47.698;17.726;2023-05-21T05:42:39;100336.00;;;19.67;72.00
71145;BME280;58812;47.698;17.726;2023-05-21T05:45:05;100339.41;;;19.89;71.04
71145;BME280;58812;47.698;17.726;2023-05-21T05:47:30;100343.56;;;19.85;70.60
71145;BME280;58812;47.698;17.726;2023-05-21T05:49:56;100342.37;;;20.08;70.22
71145;BME280;58812;47.698;17.726;2023-05-21T05:52:21;100339.03;;;20.39;68.63
71145;BME280;58812;47.698;17.726;2023-05-21T05:54:47;100346.38;;;20.78;67.19
71145;BME280;58812;47.698;17.726;2023-05-21T05:57:12;100338.16;;;21.04;66.99
71145;BME280;58812;47.698;17.726;2023-05-21T05:59:37;100344.81;;;21.35;65.67
71145;BME280;58812;47.698;17.726;2023-05-21T06:02:03;100345.50;;;21.69;64.22
71145;BME280;58812;47.698;17.726;2023-05-21T06:04:28;100343.47;;;21.96;63.35
71145;BME280;58812;47.698;17.726;2023-05-21T06:06:55;100341.09;;;22.12;61.94
71145;BME280;58812;47.698;17.726;2023-05-21T06:09:22;100343.78;;;22.44;61.70
71145;BME280;58812;47.698;17.726;2023-05-21T06:11:48;100348.53;;;22.30;61.29
71145;BME280;58812;47.698;17.726;2023-05-21T06:14:13;100350.91;;;22.45;60.66
71145;BME280;58812;47.698;17.726;2023-05-21T06:16:38;100353.53;;;22.83;59.96
71145;BME280;58812;47.698;17.726;2023-05-21T06:19:04;100354.69;;;22.44;59.21
71145;BME280;58812;47.698;17.726;2023-05-21T06:21:29;100356.59;;;22.05;59.24
71145;BME280;58812;47.698;17.726;2023-05-21T06:23:55;100358.28;;;22.13;59.18
71145;BME280;58812;47.698;17.726;2023-05-21T06:26:20;100356.38;;;22.45;59.15
71145;BME280;58812;47.698;17.726;2023-05-21T06:28:46;100350.66;;;22.53;58.82
71145;BME280;58812;47.698;17.726;2023-05-21T06:31:11;100347.28;;;22.51;59.19
71145;BME280;58812;47.698;17.726;2023-05-21T06:33:37;100350.84;;;23.02;58.61
71145;BME280;58812;47.698;17.726;2023-05-21T06:36:03;100353.34;;;23.40;57.34
71145;BME280;58812;47.698;17.726;2023-05-21T06:38:28;100363.06;;;23.54;57.01
71145;BME280;58812;47.698;17.726;2023-05-21T06:40:54;100365.13;;;23.40;56.07
71145;BME280;58812;47.698;17.726;2023-05-21T06:43:19;100365.34;;;23.21;56.46
71145;BME280;58812;47.698;17.726;2023-05-21T06:45:45;100358.38;;;22.56;59.11
71145;BME280;58812;47.698;17.726;2023-05-21T06:48:14;100359.63;;;22.60;59.96
71145;BME280;58812;47.698;17.726;2023-05-21T06:50:41;100354.78;;;22.81;57.34
71145;BME280;58812;47.698;17.726;2023-05-21T06:53:07;100358.22;;;23.56;53.59
71145;BME280;58812;47.698;17.726;2023-05-21T06:55:32;100346.38;;;23.26;55.94
71145;BME280;58812;47.698;17.726;2023-05-21T06:57:58;100350.94;;;22.95;56.19
71145;BME280;58812;47.698;17.726;2023-05-21T07:00:23;100355.44;;;22.83;56.71
71145;BME280;58812;47.698;17.726;2023-05-21T07:02:49;100349.34;;;22.81;56.85
71145;BME280;58812;47.698;17.726;2023-05-21T07:05:15;100353.41;;;22.47;56.56
71145;BME280;58812;47.698;17.726;2023-05-21T07:07:40;100352.16;;;22.49;56.83
71145;BME280;58812;47.698;17.726;2023-05-21T07:10:06;100345.50;;;22.07;57.97
71145;BME280;58812;47.698;17.726;2023-05-21T07:12:32;100346.81;;;21.98;58.11
71145;BME280;58812;47.698;17.726;2023-05-21T07:14:58;100347.47;;;21.93;59.16
71145;BME280;58812;47.698;17.726;2023-05-21T07:17:23;100343.31;;;22.22;58.68
71145;BME280;58812;47.698;17.726;2023-05-21T07:19:48;100343.00;;;22.87;57.28
71145;BME280;58812;47.698;17.726;2023-05-21T07:22:14;100347.66;;;23.41;55.26
71145;BME280;58812;47.698;17.726;2023-05-21T07:24:39;100345.09;;;23.28;54.76
71145;BME280;58812;47.698;17.726;2023-05-21T07:27:05;100345.63;;;24.69;52.48
71145;BME280;58812;47.698;17.726;2023-05-21T07:29:32;100341.47;;;24.90;50.95
71145;BME280;58812;47.698;17.726;2023-05-21T07:31:57;100342.19;;;24.73;51.63
71145;BME280;58812;47.698;17.726;2023-05-21T07:34:23;100338.87;;;23.88;53.33
71145;BME280;58812;47.698;17.726;2023-05-21T07:36:48;100343.62;;;23.81;54.33
71145;BME280;58812;47.698;17.726;2023-05-21T07:39:14;100343.47;;;23.57;55.50
71145;BME280;58812;47.698;17.726;2023-05-21T07:41:39;100341.50;;;23.46;55.78
71145;BME280;58812;47.698;17.726;2023-05-21T07:44:05;100343.81;;;23.31;57.38
71145;BME280;58812;47.698;17.726;2023-05-21T07:46:30;100344.41;;;23.33;56.84
71145;BME280;58812;47.698;17.726;2023-05-21T07:48:56;100346.38;;;23.62;55.66
71145;BME280;58812;47.698;17.726;2023-05-21T07:51:21;100350.00;;;23.75;55.08
71145;BME280;58812;47.698;17.726;2023-05-21T07:53:46;100346.78;;;23.78;56.19
71145;BME280;58812;47.698;17.726;2023-05-21T07:56:12;100349.56;;;24.08;54.71
71145;BME280;58812;47.698;17.726;2023-05-21T07:58:37;100351.72;;;25.06;51.08
71145;BME280;58812;47.698;17.726;2023-05-21T08:01:04;100347.81;;;25.54;51.53
71145;BME280;58812;47.698;17.726;2023-05-21T08:03:30;100349.41;;;26.07;49.79
71145;BME280;58812;47.698;17.726;2023-05-21T08:05:55;100351.12;;;25.96;49.86
71145;BME280;58812;47.698;17.726;2023-05-21T08:08:21;100358.41;;;26.48;49.67
71145;BME280;58812;47.698;17.726;2023-05-21T08:10:48;100354.63;;;27.04;47.68
71145;BME280;58812;47.698;17.726;2023-05-21T08:13:14;100348.91;;;26.72;46.94
71145;BME280;58812;47.698;17.726;2023-05-21T08:15:40;100355.41;;;27.22;46.10
71145;BME280;58812;47.698;17.726;2023-05-21T08:18:06;100351.00;;;26.65;45.42
71145;BME280;58812;47.698;17.726;2023-05-21T08:20:31;100350.72;;;27.17;44.21
71145;BME280;58812;47.698;17.726;2023-05-21T08:23:00;100354.78;;;26.98;43.10
71145;BME280;58812;47.698;17.726;2023-05-21T08:25:26;100348.91;;;27.06;44.06
71145;BME280;58812;47.698;17.726;2023-05-21T08:27:51;100350.66;;;27.34;43.47
71145;BME280;58812;47.698;17.726;2023-05-21T08:30:17;100342.09;;;27.74;42.70
71145;BME280;58812;47.698;17.726;2023-05-21T08:32:42;100346.00;;;27.78;42.33
71145;BME280;58812;47.698;17.726;2023-05-21T08:35:08;100345.31;;;27.27;42.38
71145;BME280;58812;47.698;17.726;2023-05-21T08:37:33;100348.91;;;27.50;42.46
71145;BME280;58812;47.698;17.726;2023-05-21T08:39:59;100351.41;;;27.95;40.86
71145;BME280;58812;47.698;17.726;2023-05-21T08:42:43;100348.75;;;28.05;40.88
71145;BME280;58812;47.698;17.726;2023-05-21T08:45:13;100356.44;;;27.76;42.55
71145;BME280;58812;47.698;17.726;2023-05-21T08:47:41;100355.81;;;27.30;41.70
71145;BME280;58812;47.698;17.726;2023-05-21T08:50:09;100351.09;;;27.48;42.52
71145;BME280;58812;47.698;17.726;2023-05-21T08:52:35;100347.25;;;28.52;40.40
71145;BME280;58812;47.698;17.726;2023-05-21T08:55:02;100355.75;;;28.45;40.50
71145;BME280;58812;47.698;17.726;2023-05-21T08:57:29;100351.06;;;28.45;40.21
71145;BME280;58812;47.698;17.726;2023-05-21T08:59:56;100350.31;;;28.55;40.39
71145;BME280;58812;47.698;17.726;2023-05-21T09:02:21;100346.88;;;28.70;39.42
71145;BME280;58812;47.698;17.726;2023-05-21T09:04:50;100353.56;;;29.21;39.15
71145;BME280;58812;47.698;17.726;2023-05-21T09:07:24;100351.75;;;28.63;39.63
71145;BME280;58812;47.698;17.726;2023-05-21T09:09:54;100346.88;;;28.70;39.13
71145;BME280;58812;47.698;17.726;2023-05-21T09:12:20;100345.66;;;28.56;39.03
71145;BME280;58812;47.698;17.726;2023-05-21T09:14:48;100345.78;;;28.39;38.49
71145;BME280;58812;47.698;17.726;2023-05-21T09:17:13;100341.47;;;28.48;38.99
71145;BME280;58812;47.698;17.726;2023-05-21T09:20:22;100345.69;;;28.61;38.54
71145;BME280;58812;47.698;17.726;2023-05-21T09:22:48;100337.88;;;29.32;37.13
71145;BME280;58812;47.698;17.726;2023-05-21T09:25:25;100339.88;;;29.47;37.24
71145;BME280;58812;47.698;17.726;2023-05-21T09:27:55;100335.28;;;29.63;36.28
71145;BME280;58812;47.698;17.726;2023-05-21T09:30:20;100342.00;;;30.02;36.53
71145;BME280;58812;47.698;17.726;2023-05-21T09:32:51;100339.44;;;29.70;36.59
71145;BME280;58812;47.698;17.726;2023-05-21T09:35:18;100337.47;;;29.56;36.56
71145;BME280;58812;47.698;17.726;2023-05-21T09:37:46;100333.69;;;29.87;36.11
71145;BME280;58812;47.698;17.726;2023-05-21T09:42:47;100340.59;;;30.00;36.33
71145;BME280;58812;47.698;17.726;2023-05-21T09:45:24;100339.75;;;29.84;36.89
71145;BME280;58812;47.698;17.726;2023-05-21T09:47:51;100334.91;;;30.37;35.57
71145;BME280;58812;47.698;17.726;2023-05-21T09:50:25;100330.97;;;30.08;34.73
71145;BME280;58812;47.698;17.726;2023-05-21T09:52:52;100322.19;;;30.21;34.37
71145;BME280;58812;47.698;17.726;2023-05-21T09:55:23;100328.25;;;30.23;35.11
71145;BME280;58812;47.698;17.726;2023-05-21T09:57:49;100334.88;;;30.17;34.31
71145;BME280;58812;47.698;17.726;2023-05-21T10:00:23;100325.56;;;29.50;34.23
71145;BME280;58812;47.698;17.726;2023-05-21T10:02:53;100320.16;;;29.86;34.28
71145;BME280;58812;47.698;17.726;2023-05-21T10:05:19;100325.72;;;30.01;34.04
71145;BME280;58812;47.698;17.726;2023-05-21T10:07:49;100324.31;;;29.83;34.11
71145;BME280;58812;47.698;17.726;2023-05-21T10:10:19;100333.50;;;30.14;33.51
71145;BME280;58812;47.698;17.726;2023-05-21T10:12:51;100329.88;;;30.09;33.50
71145;BME280;58812;47.698;17.726;2023-05-21T10:15:22;100331.03;;;30.13;33.90
71145;BME280;58812;47.698;17.726;2023-05-21T10:17:48;100332.41;;;30.51;34.02
71145;BME280;58812;47.698;17.726;2023-05-21T10:20:13;100330.41;;;30.05;34.46
71145;BME280;58812;47.698;17.726;2023-05-21T10:22:40;100326.22;;;29.83;34.45
71145;BME280;58812;47.698;17.726;2023-05-21T10:25:07;100326.03;;;30.20;34.31
71145;BME280;58812;47.698;17.726;2023-05-21T10:27:34;100312.28;;;28.89;36.67
71145;BME280;58812;47.698;17.726;2023-05-21T10:30:00;100320.50;;;28.84;36.76
71145;BME280;58812;47.698;17.726;2023-05-21T10:32:26;100316.38;;;30.38;34.47
71145;BME280;58812;47.698;17.726;2023-05-21T10:34:55;100303.56;;;29.65;34.54
71145;BME280;58812;47.698;17.726;2023-05-21T10:37:25;100305.50;;;29.70;35.23
71145;BME280;58812;47.698;17.726;2023-05-21T10:39:52;100298.41;;;30.30;34.09
71145;BME280;58812;47.698;17.726;2023-05-21T10:50:21;100301.25;;;29.42;35.49
71145;BME280;58812;47.698;17.726;2023-05-21T10:59:09;100300.41;;;29.46;35.51
71145;BME280;58812;47.698;17.726;2023-05-21T11:01:37;100300.25;;;31.06;33.80
71145;BME280;58812;47.698;17.726;2023-05-21T11:04:04;100295.88;;;29.77;35.18
71145;BME280;58812;47.698;17.726;2023-05-21T11:06:30;100287.50;;;27.66;39.14
71145;BME280;58812;47.698;17.726;2023-05-21T11:09:01;100287.97;;;29.34;36.06
71145;BME280;58812;47.698;17.726;2023-05-21T11:11:39;100286.44;;;29.58;33.92
71145;BME280;58812;47.698;17.726;2023-05-21T11:14:31;100294.50;;;29.90;33.79
71145;BME280;58812;47.698;17.726;2023-05-21T11:22:08;100283.50;;;30.11;33.75
71145;BME280;58812;47.698;17.726;2023-05-21T11:24:36;100286.69;;;29.57;35.53
71145;BME280;58812;47.698;17.726;2023-05-21T11:27:04;100279.56;;;29.76;35.09
71145;BME280;58812;47.698;17.726;2023-05-21T11:29:41;100278.53;;;30.08;34.60
71145;BME280;58812;47.698;17.726;2023-05-21T11:32:09;100279.38;;;30.18;33.57
71145;BME280;58812;47.698;17.726;2023-05-21T11:39:41;100278.50;;;30.74;32.81
71145;BME280;58812;47.698;17.726;2023-05-21T11:42:07;100279.94;;;31.46;32.08
71145;BME280;58812;47.698;17.726;2023-05-21T11:44:43;100272.66;;;30.96;33.14
71145;BME280;58812;47.698;17.726;2023-05-21T11:47:12;100262.34;;;28.38;35.75
71145;BME280;58812;47.698;17.726;2023-05-21T11:49:42;100258.78;;;28.85;34.98
71145;BME280;58812;47.698;17.726;2023-05-21T11:52:09;100257.00;;;28.59;34.59
71145;BME280;58812;47.698;17.726;2023-05-21T11:54:45;100261.03;;;28.14;37.08
71145;BME280;58812;47.698;17.726;2023-05-21T11:57:13;100263.13;;;29.23;35.88
71145;BME280;58812;47.698;17.726;2023-05-21T11:59:50;100259.72;;;29.89;35.23
71145;BME280;58812;47.698;17.726;2023-05-21T12:02:18;100260.87;;;30.14;35.35
71145;BME280;58812;47.698;17.726;2023-05-21T12:04:48;100257.78;;;29.85;35.91
71145;BME280;58812;47.698;17.726;2023-05-21T12:07:16;100257.16;;;28.89;37.25
71145;BME280;58812;47.698;17.726;2023-05-21T12:09:43;100253.53;;;29.41;36.91
71145;BME280;58812;47.698;17.726;2023-05-21T12:12:11;100243.94;;;29.64;35.90
71145;BME280;58812;47.698;17.726;2023-05-21T12:14:43;100240.37;;;29.74;35.43
71145;BME280;58812;47.698;17.726;2023-05-21T12:17:09;100244.81;;;29.80;35.63
71145;BME280;58812;47.698;17.726;2023-05-21T12:19:38;100243.69;;;29.66;34.94
71145;BME280;58812;47.698;17.726;2023-05-21T12:22:04;100237.37;;;29.86;33.42
71145;BME280;58812;47.698;17.726;2023-05-21T12:24:30;100244.78;;;29.60;33.37
71145;BME280;58812;47.698;17.726;2023-05-21T12:26:57;100241.16;;;30.87;31.98
71145;BME280;58812;47.698;17.726;2023-05-21T12:29:29;100235.44;;;31.82;31.43
71145;BME280;58812;47.698;17.726;2023-05-21T12:31:58;100200.63;;;29.65;33.48
71145;BME280;58812;47.698;17.726;2023-05-21T12:34:41;100232.63;;;30.63;32.78
71145;BME280;58812;47.698;17.726;2023-05-21T12:37:30;100228.81;;;29.97;33.23
71145;BME280;58812;47.698;17.726;2023-05-21T12:40:03;100226.00;;;30.53;33.13
71145;BME280;58812;47.698;17.726;2023-05-21T12:42:36;100226.31;;;29.60;33.03
71145;BME280;58812;47.698;17.726;2023-05-21T12:45:07;100232.16;;;29.01;34.10
71145;BME280;58812;47.698;17.726;2023-05-21T12:47:33;100230.87;;;29.34;33.69
71145;BME280;58812;47.698;17.726;2023-05-21T12:50:01;100223.13;;;29.16;34.14
71145;BME280;58812;47.698;17.726;2023-05-21T12:52:27;100221.22;;;28.69;34.35
71145;BME280;58812;47.698;17.726;2023-05-21T12:54:55;100216.91;;;28.83;34.29
71145;BME280;58812;47.698;17.726;2023-05-21T12:57:25;100209.59;;;29.09;33.57
71145;BME280;58812;47.698;17.726;2023-05-21T12:59:59;100211.56;;;29.29;32.92
71145;BME280;58812;47.698;17.726;2023-05-21T13:02:30;100213.50;;;29.23;33.35
71145;BME280;58812;47.698;17.726;2023-05-21T13:05:02;100206.37;;;28.75;34.15
71145;BME280;58812;47.698;17.726;2023-05-21T13:07:30;100198.53;;;28.46;34.73